Flight Track Log - Related Links

Times and Time Zones

All times are in EDT time to prevent confusion due to time zone crossing. See the ASQ5389 flight status page for this flight to view local times or setup timezone preferences in your user account.

Time Position Orientation Groundspeed Altitude Reporting Facility
EDT Latitude Longitude Course Direction KTS MPH feet Rate Location/Type
Wed 12:05:00 PM 35.8169 -78.8733 224° Southwest 217 250 4,100  Level Washington Center
Wed 12:06:00 PM 35.8003 -78.9494 255° West 271 312 6,200 2,031 Climbing Washington Center
Wed 12:07:07 PM 35.8100 -79.0394 278° West 280 322 8,400 1,836 Climbing Washington Center
Wed 12:09:03 PM 35.8289 -79.2442 277° West 289 333 11,800 1,841 Climbing Atlanta Center
Wed 12:10:03 PM 35.8314 -79.3567 272° West 311 358 13,800 1,950 Climbing Atlanta Center
Wed 12:11:03 PM 35.8231 -79.4672 265° West 325 374 15,700 1,800 Climbing Atlanta Center
Wed 12:12:03 PM 35.8103 -79.5781 262° West 331 381 17,400 1,550 Climbing Atlanta Center
Wed 12:13:03 PM 35.7892 -79.6867 257° West 331 381 18,800 1,450 Climbing Atlanta Center
Wed 12:14:03 PM 35.7739 -79.7875 259° West 341 392 20,300 1,450 Climbing Atlanta Center
Wed 12:15:03 PM 35.7528 -79.8986 257° West 341 392 21,700 1,250 Climbing Atlanta Center
Wed 12:16:03 PM 35.7317 -80.0147 257° West 341 392 22,800 1,050 Climbing Atlanta Center
Wed 12:17:03 PM 35.7122 -80.1283 258° West 336 387 23,800 1,150 Climbing Atlanta Center
Wed 12:18:03 PM 35.6892 -80.2572 258° West 347 399 25,100 1,200 Climbing Atlanta Center
Wed 12:19:03 PM 35.6681 -80.3808 258° West 357 411 26,200 1,100 Climbing Atlanta Center
Wed 12:20:03 PM 35.6442 -80.4969 256° West 357 411 27,300 1,050 Climbing Atlanta Center
Wed 12:21:03 PM 35.5992 -80.6036 243° Southwest 352 405 28,300 750 Climbing Atlanta Center
Wed 12:22:03 PM 35.5542 -80.7100 243° Southwest 357 411 28,800 500 Climbing Atlanta Center
Wed 12:23:03 PM 35.5072 -80.8217 243° Southwest 365 420 29,300 500 Climbing Atlanta Center
Wed 12:24:03 PM 35.4558 -80.9383 242° Southwest 380 437 29,800 450 Climbing Atlanta Center
Wed 12:25:03 PM 35.4125 -81.0444 243° Southwest 386 444 30,200 450 Climbing Atlanta Center
Wed 12:26:03 PM 35.3592 -81.1661 242° Southwest 402 463 30,700 500 Climbing Atlanta Center
Wed 12:27:03 PM 35.3078 -81.2850 242° Southwest 402 463 31,200 550 Climbing Atlanta Center
Wed 12:28:03 PM 35.2858 -81.4308 260° West 394 453 31,800 400 Climbing Atlanta Center
Wed 12:29:03 PM 35.2781 -81.5658 266° West 394 453 32,000 100 Climbing Atlanta Center
Wed 12:30:03 PM 35.2683 -81.7011 265° West 405 466 32,000  Level Atlanta Center
Wed 12:31:03 PM 35.2583 -81.8386 265° West 410 472 32,000  Level Atlanta Center
Wed 12:32:03 PM 35.2483 -81.9814 265° West 415 478 32,000  Level Atlanta Center
Wed 12:33:03 PM 35.2381 -82.1189 265° West 415 478 32,000  Level Atlanta Center
Wed 12:34:03 PM 35.2256 -82.2592 264° West 415 478 32,000  Level Atlanta Center
Wed 12:35:03 PM 35.2167 -82.3839 265° West 420 483 32,000  Level Atlanta Center
Wed 12:36:03 PM 35.2039 -82.5239 264° West 420 483 32,000  Level Atlanta Center
Wed 12:37:03 PM 35.1931 -82.6611 265° West 420 483 32,000  Level Atlanta Center
Wed 12:38:03 PM 35.1819 -82.7986 264° West 414 476 32,000  Level Atlanta Center
Wed 12:39:03 PM 35.1711 -82.9539 265° West 414 476 32,000  Level Atlanta Center
Wed 12:40:03 PM 35.1556 -83.0936 262° West 414 476 32,000  Level Atlanta Center
Wed 12:41:03 PM 35.1461 -83.2336 265° West 414 476 32,000  Level Atlanta Center
Wed 12:42:03 PM 35.1322 -83.3708 263° West 414 476 32,000  Level Atlanta Center
Wed 12:43:03 PM 35.1203 -83.5031 264° West 408 470 32,000  Level Atlanta Center
Wed 12:44:03 PM 35.1064 -83.6428 263° West 408 470 32,000  Level Atlanta Center
Wed 12:45:03 PM 35.0942 -83.7825 264° West 408 470 32,000  Level Atlanta Center
Wed 12:46:03 PM 35.0819 -83.9169 264° West 408 470 32,000  Level Atlanta Center
Wed 12:47:03 PM 35.0694 -84.0514 264° West 408 470 32,000  Level Atlanta Center
Wed 12:48:03 PM 35.0567 -84.1886 264° West 408 470 32,000  Level Atlanta Center
Wed 12:49:03 PM 35.0419 -84.3253 263° West 408 470 32,000  Level Atlanta Center
Wed 12:50:03 PM 35.0292 -84.4622 264° West 408 470 32,000  Level Atlanta Center
Wed 12:51:03 PM 35.0161 -84.5967 263° West 408 470 32,000  Level Atlanta Center
Wed 12:52:03 PM 35.0028 -84.7311 263° West 408 470 32,000  Level Atlanta Center
Wed 12:53:03 PM 34.9894 -84.8678 263° West 408 470 32,000  Level Atlanta Center
Wed 12:54:03 PM 34.9758 -85.0019 263° West 408 470 32,000  Level Atlanta Center
Wed 12:55:03 PM 34.9603 -85.1386 262° West 408 470 32,000  Level Atlanta Center
Wed 12:56:03 PM 34.9464 -85.2728 263° West 408 470 32,000  Level Atlanta Center
Wed 12:57:03 PM 34.9347 -85.3917 263° West 408 470 32,000  Level Atlanta Center
Wed 12:58:03 PM 34.9206 -85.5258 263° West 403 464 32,000  Level Atlanta Center
Wed 12:59:03 PM 34.9064 -85.6597 263° West 408 470 32,000  Level Atlanta Center
Wed 01:00:03 PM 34.8922 -85.7911 263° West 408 470 32,000  Level Atlanta Center
Wed 01:01:03 PM 34.8817 -85.9250 265° West 403 464 32,000  Level Atlanta Center
Wed 01:02:03 PM 34.8672 -86.0589 263° West 408 470 32,000  Level Atlanta Center
Wed 01:03:03 PM 34.8503 -86.1928 261° West 408 470 32,000  Level Atlanta Center
Wed 01:04:03 PM 34.8372 -86.3289 263° West 408 470 32,000  Level Atlanta Center
Wed 01:05:03 PM 34.8222 -86.4628 262° West 408 470 32,000  Level Atlanta Center
Wed 01:06:03 PM 34.8069 -86.5964 262° West 408 470 32,000  Level Atlanta Center
Wed 01:06:32 PM 34.7983 -86.6775 263° West 407 468 32,000  Level Memphis Center
Wed 01:07:32 PM 34.7814 -86.8097 261° West 407 468 32,000  Level Memphis Center
Wed 01:08:32 PM 34.7639 -86.9367 261° West 407 468 32,000  Level Memphis Center
Wed 01:09:32 PM 34.7489 -87.0714 262° West 402 463 32,000  Level Memphis Center
Wed 01:10:32 PM 34.7353 -87.1881 262° West 396 456 32,000 -450 Level Memphis Center
Wed 01:11:32 PM 34.7219 -87.3225 263° West 396 456 31,100 -950 Descending Memphis Center
Wed 01:12:32 PM 34.7128 -87.4644 266° West 416 479 30,100 -550 Descending Memphis Center
Wed 01:13:32 PM 34.7203 -87.6158 273° West 440 506 30,000 -50 Descending Memphis Center
Wed 01:14:32 PM 34.7172 -87.7597 269° West 440 506 30,000  Level Memphis Center
Wed 01:15:32 PM 34.7181 -87.9039 270° West 435 501 30,000  Level Memphis Center
Wed 01:16:32 PM 34.7208 -88.0478 271° West 435 501 30,000 -200 Level Memphis Center
Wed 01:17:32 PM 34.7214 -88.1917 270° West 435 501 29,600 -700 Descending Memphis Center
Wed 01:18:32 PM 34.7197 -88.3383 269° West 435 501 28,600 -1,033 Descending Memphis Center
Wed 01:19:34 PM 34.7197 -88.4822 270° West 435 501 27,500 -1,500 Descending Memphis Center
Wed 01:20:44 PM 34.7181 -88.6567 269° West 435 501 25,300 -2,123 Descending Memphis Center
Wed 01:21:44 PM 34.7200 -88.8033 271° West 440 506 22,900 -2,300 Descending Memphis Center
Wed 01:22:44 PM 34.7175 -88.9397 269° West 433 498 20,700 -2,200 Descending Memphis Center
Wed 01:23:44 PM 34.7189 -89.0736 271° West 413 475 18,500 -2,100 Descending Memphis Center
Wed 01:24:44 PM 34.7183 -89.2075 270° West 401 461 16,500 -2,000 Descending Memphis Center
Wed 01:25:44 PM 34.7319 -89.3311 278° West 388 447 14,500 -1,250 Descending Memphis Center
Wed 01:26:44 PM 34.7600 -89.4597 285° West 388 447 14,000 -550 Descending Memphis Center
Wed 01:27:44 PM 34.8086 -89.5731 298° West 382 440 13,400 -500 Descending Memphis Center
Wed 01:28:44 PM 34.8594 -89.6714 302° West 371 427 13,000 -750 Descending Memphis Center
Wed 01:29:44 PM 34.9017 -89.7569 301° West 330 380 11,900 -1,300 Descending Memphis Center
Wed 01:30:44 PM 34.9394 -89.8328 301° West 290 334 10,400 -1,450 Descending Memphis Center
Wed 01:31:44 PM 34.9961 -89.8806 325° Northwest 263 303 9,000 -1,500 Descending Memphis Center
Wed 01:32:56 PM 35.1000 -89.8833 359° North 274 315 7,100 -1,727 Descending KMEM
Wed 01:33:56 PM 35.1667 -89.8833 360° North 261 300 5,200 -1,550 Descending KMEM
Wed 01:34:56 PM 35.2333 -89.8667 12° North 249 287 4,000 -889 Descending KMEM
Wed 01:35:44 PM 35.2858 -89.8661 360° North 251 289 3,600 -556 Descending Memphis Center
Wed 01:36:44 PM 35.3339 -89.8989 331° Northwest 224 258 3,000 -300 Descending Memphis Center
Wed 01:37:44 PM 35.3364 -89.9675 273° West 177 204 3,000 -91 Level Memphis Center
Wed 01:38:56 PM 35.2500 -89.9833 189° South 172 198 2,800 -364 Descending KMEM
Wed 01:39:56 PM 35.2000 -89.9833 180° South 167 192 2,200 -400 Descending KMEM
Wed 01:40:56 PM 35.1500 -89.9833 180° South 172 198 2,000 -450 Descending KMEM
Wed 01:41:56 PM 35.1000 -89.9667 165° South 161 185 1,300 -700 Descending KMEM
Wed 01:42:56 PM 35.0667 -89.9667 180° South 124 143 600 -700 Descending KMEM
Wed 01:44:00 PM 35.0424 -89.9767 196° South  Level Estimated
Wed 01:51:00 PM 35.0424 -89.9767 196° South  Level Estimated
Wed 01:52:00 PM 35.0424 -89.9767 196° South  Level Estimated
Wed 01:53:00 PM 35.0424 -89.9767 196° South  Level Estimated
Wed 01:54:00 PM 35.0424 -89.9767 196° South  Level Estimated

Login

Don't have an account? Register now (free) for customized features, flight alerts, and more!